Time;durP1;ratioP1;P1;durP2;ratioP2;P2;SDS_P1;SDS_P2;PMS_P1;PMS_P2;Temp;Humidity;BMP_temperature;BMP_pressure;BME280_temperature;BME280_humidity;BME280_pressure;Samples;Min_cycle;Max_cycle;Signal;HPM_P1;HPM_P2
2022/06/08 00:01:34;;;;;;;2.75;2.28;;;;;;;;;;5065110;28;20288;-51
2022/06/08 00:04:01;;;;;;;2.65;2.25;;;;;;;;;;5066076;28;20310;-50
2022/06/08 00:06:28;;;;;;;2.97;2.72;;;;;;;;;;5064454;28;20783;-51
2022/06/08 00:08:56;;;;;;;2.58;2.22;;;;;;;;;;5062874;28;20231;-51
2022/06/08 00:11:22;;;;;;;3.08;2.78;;;;;;;;;;5060075;28;20233;-51
2022/06/08 00:13:49;;;;;;;2.92;2.35;;;;;;;;;;5056379;28;20238;-50
2022/06/08 00:16:17;;;;;;;3.58;2.53;;;;;;;;;;5063238;28;20635;-51
2022/06/08 00:18:44;;;;;;;3.38;2.55;;;;;;;;;;5061666;28;20239;-51
2022/06/08 00:21:11;;;;;;;3.78;2.30;;;;;;;;;;5065767;28;20254;-52
2022/06/08 00:23:38;;;;;;;3.63;2.20;;;;;;;;;;5064326;28;20235;-51
2022/06/08 00:26:06;;;;;;;3.20;2.45;;;;;;;;;;5057420;28;20314;-51
2022/06/08 00:28:33;;;;;;;3.00;2.50;;;;;;;;;;5058248;28;20615;-51
2022/06/08 00:31:00;;;;;;;4.55;2.80;;;;;;;;;;5062380;28;20753;-51
2022/06/08 00:33:26;;;;;;;4.15;3.42;;;;;;;;;;5055100;28;20240;-51
2022/06/08 00:35:52;;;;;;;3.22;3.03;;;;;;;;;;5064052;28;20246;-51
2022/06/08 00:38:19;;;;;;;3.58;3.20;;;;;;;;;;5062835;28;20234;-51
2022/06/08 00:40:51;;;;;;;3.30;3.00;;;;;;;;;;5059202;28;20254;-52
2022/06/08 00:43:19;;;;;;;3.17;2.85;;;;;;;;;;5060406;28;20927;-51
2022/06/08 00:45:46;;;;;;;3.65;2.92;;;;;;;;;;5062197;28;20241;-51
2022/06/08 00:48:12;;;;;;;3.35;2.75;;;;;;;;;;5062581;28;20240;-51
2022/06/08 00:50:41;;;;;;;3.05;2.72;;;;;;;;;;5056127;28;20732;-51
2022/06/08 00:53:08;;;;;;;4.55;3.38;;;;;;;;;;5060506;28;20235;-51
2022/06/08 00:55:36;;;;;;;3.97;3.35;;;;;;;;;;5063071;28;20231;-50
2022/06/08 00:58:05;;;;;;;5.10;3.47;;;;;;;;;;5062694;28;20235;-51
2022/06/08 01:00:34;;;;;;;4.47;3.42;;;;;;;;;;5062118;28;20242;-51
2022/06/08 01:03:01;;;;;;;4.32;2.92;;;;;;;;;;5052468;28;20242;-51
2022/06/08 01:05:29;;;;;;;3.75;2.78;;;;;;;;;;5061337;28;20243;-50
2022/06/08 01:07:56;;;;;;;3.65;3.30;;;;;;;;;;5063714;28;20285;-51
2022/06/08 01:10:24;;;;;;;4.40;3.33;;;;;;;;;;5060525;28;20236;-51
2022/06/08 01:12:50;;;;;;;4.35;3.40;;;;;;;;;;5060493;28;20242;-51
2022/06/08 01:15:20;;;;;;;3.47;3.17;;;;;;;;;;5062159;28;20247;-51
2022/06/08 01:17:48;;;;;;;4.57;3.28;;;;;;;;;;5058573;28;20239;-51
2022/06/08 01:20:15;;;;;;;4.55;3.30;;;;;;;;;;5058534;28;20239;-52
2022/06/08 01:22:42;;;;;;;8.80;3.33;;;;;;;;;;5063076;28;20255;-52
2022/06/08 01:25:15;;;;;;;4.93;3.05;;;;;;;;;;5062033;28;20230;-52
2022/06/08 01:27:47;;;;;;;3.25;2.80;;;;;;;;;;5060606;28;20235;-52
2022/06/08 01:30:15;;;;;;;5.03;2.90;;;;;;;;;;5063232;28;20617;-51
2022/06/08 01:32:59;;;;;;;4.05;3.38;;;;;;;;;;5062008;28;21016;-51
2022/06/08 01:35:31;;;;;;;3.42;3.00;;;;;;;;;;5062878;28;20697;-51
2022/06/08 01:38:06;;;;;;;4.10;3.67;;;;;;;;;;5063614;28;20223;-52
2022/06/08 01:40:39;;;;;;;3.72;3.35;;;;;;;;;;5061017;28;20656;-50
2022/06/08 01:43:15;;;;;;;3.10;2.80;;;;;;;;;;5058360;28;20227;-50
2022/06/08 01:45:49;;;;;;;3.67;3.05;;;;;;;;;;5062353;28;20261;-54
2022/06/08 01:48:32;;;;;;;6.05;3.28;;;;;;;;;;5056753;28;20759;-51
2022/06/08 01:51:02;;;;;;;5.38;3.58;;;;;;;;;;5060275;28;20811;-50
2022/06/08 01:53:34;;;;;;;3.47;3.15;;;;;;;;;;5063844;28;20710;-52
2022/06/08 01:56:03;;;;;;;3.15;2.85;;;;;;;;;;5058930;28;20243;-51
2022/06/08 01:58:35;;;;;;;3.10;2.78;;;;;;;;;;5056693;28;20690;-51
2022/06/08 02:01:03;;;;;;;3.15;2.83;;;;;;;;;;5064124;28;20227;-51
2022/06/08 02:03:33;;;;;;;3.67;3.20;;;;;;;;;;5058354;28;20231;-51
2022/06/08 02:06:01;;;;;;;3.25;2.95;;;;;;;;;;5064388;28;20830;-51
2022/06/08 02:08:33;;;;;;;3.05;2.58;;;;;;;;;;5064978;28;20656;-51
2022/06/08 02:11:02;;;;;;;3.20;2.90;;;;;;;;;;5047941;28;20329;-52
2022/06/08 02:13:29;;;;;;;3.35;3.00;;;;;;;;;;5065160;28;20318;-51
2022/06/08 02:15:58;;;;;;;6.60;4.15;;;;;;;;;;5063939;28;20235;-51
2022/06/08 02:18:27;;;;;;;4.40;3.53;;;;;;;;;;5061603;28;20655;-50
2022/06/08 02:20:55;;;;;;;3.67;3.35;;;;;;;;;;5064604;28;20705;-50
2022/06/08 02:23:23;;;;;;;5.35;3.83;;;;;;;;;;5065008;28;20317;-51
2022/06/08 02:25:55;;;;;;;3.05;2.75;;;;;;;;;;5064754;28;20701;-51
2022/06/08 02:28:24;;;;;;;4.18;2.97;;;;;;;;;;5064188;28;20857;-51
2022/06/08 02:30:53;;;;;;;3.35;3.05;;;;;;;;;;5065355;28;20724;-50
2022/06/08 02:36:09;;;;;;;3.63;3.25;;;;;;;;;;5055011;28;20242;-49
2022/06/08 02:38:38;;;;;;;4.35;2.97;;;;;;;;;;5060762;28;20230;-51
2022/06/08 02:41:08;;;;;;;2.63;2.42;;;;;;;;;;5060450;28;20239;-50
2022/06/08 02:43:36;;;;;;;3.25;2.95;;;;;;;;;;5060703;28;20223;-51
2022/06/08 02:46:06;;;;;;;3.30;3.00;;;;;;;;;;5057715;28;20235;-50
2022/06/08 02:48:33;;;;;;;3.25;3.03;;;;;;;;;;5063287;28;20231;-50
2022/06/08 02:51:00;;;;;;;2.58;2.38;;;;;;;;;;5063927;28;20235;-51
2022/06/08 02:53:43;;;;;;;3.03;2.78;;;;;;;;;;5063519;28;20721;-52
2022/06/08 02:56:14;;;;;;;3.33;2.80;;;;;;;;;;5061076;28;20234;-50
2022/06/08 02:58:45;;;;;;;5.60;2.65;;;;;;;;;;5059070;28;20721;-50
2022/06/08 03:01:15;;;;;;;4.53;3.00;;;;;;;;;;5057281;28;20243;-51
2022/06/08 03:03:45;;;;;;;2.65;2.45;;;;;;;;;;5056616;28;20263;-52
2022/06/08 03:06:15;;;;;;;3.58;2.75;;;;;;;;;;5058236;28;20235;-50
2022/06/08 03:08:45;;;;;;;3.10;2.45;;;;;;;;;;5060738;28;20281;-51
2022/06/08 03:11:13;;;;;;;2.75;2.55;;;;;;;;;;5061500;28;20238;-50
2022/06/08 03:13:42;;;;;;;5.80;2.92;;;;;;;;;;5064561;28;20335;-50
2022/06/08 03:16:10;;;;;;;3.15;2.85;;;;;;;;;;5061782;28;20674;-52
2022/06/08 03:18:36;;;;;;;3.08;2.70;;;;;;;;;;5061041;28;20401;-50
2022/06/08 03:21:05;;;;;;;3.92;3.25;;;;;;;;;;5062196;28;20702;-50
2022/06/08 03:23:31;;;;;;;3.05;2.80;;;;;;;;;;5057817;28;20322;-50
2022/06/08 03:25:58;;;;;;;3.20;2.97;;;;;;;;;;5056256;28;20281;-51
2022/06/08 03:28:25;;;;;;;3.33;2.80;;;;;;;;;;5068168;28;20569;-50
2022/06/08 03:30:52;;;;;;;3.08;2.78;;;;;;;;;;5066773;28;20227;-50
2022/06/08 03:33:18;;;;;;;3.15;2.92;;;;;;;;;;5061491;28;20246;-50
2022/06/08 03:35:44;;;;;;;3.53;2.90;;;;;;;;;;5066331;28;20231;-51
2022/06/08 03:38:11;;;;;;;3.17;2.97;;;;;;;;;;5066427;28;20282;-51
2022/06/08 03:40:37;;;;;;;5.32;2.90;;;;;;;;;;5062798;28;20239;-50
2022/06/08 03:43:04;;;;;;;3.05;2.78;;;;;;;;;;5063109;28;20238;-50
2022/06/08 03:45:34;;;;;;;3.47;3.17;;;;;;;;;;5066052;28;20284;-50
2022/06/08 03:48:01;;;;;;;9.57;3.22;;;;;;;;;;5060106;28;20219;-50
2022/06/08 03:50:30;;;;;;;4.03;2.80;;;;;;;;;;5064833;28;20231;-50
2022/06/08 03:52:58;;;;;;;5.68;2.42;;;;;;;;;;5063783;28;20764;-50
2022/06/08 03:55:25;;;;;;;3.30;2.63;;;;;;;;;;5062369;28;20722;-50
2022/06/08 03:57:51;;;;;;;2.90;2.63;;;;;;;;;;5066988;28;20230;-51
2022/06/08 04:00:18;;;;;;;3.03;2.75;;;;;;;;;;5065082;28;20231;-51
2022/06/08 04:02:47;;;;;;;2.47;2.38;;;;;;;;;;5066961;28;20234;-51
2022/06/08 04:05:14;;;;;;;3.08;2.88;;;;;;;;;;5066452;28;20242;-51
2022/06/08 04:07:40;;;;;;;4.32;2.78;;;;;;;;;;5059951;28;20594;-51
2022/06/08 04:10:07;;;;;;;3.03;2.78;;;;;;;;;;5058892;28;20224;-50
2022/06/08 04:12:34;;;;;;;3.75;2.72;;;;;;;;;;5056596;28;20245;-51
2022/06/08 04:15:00;;;;;;;2.15;2.03;;;;;;;;;;5057771;28;20349;-51
2022/06/08 04:17:27;;;;;;;3.40;2.65;;;;;;;;;;5066425;28;20601;-51
2022/06/08 04:19:55;;;;;;;2.92;2.72;;;;;;;;;;5062048;28;20231;-51
2022/06/08 04:22:22;;;;;;;2.63;2.42;;;;;;;;;;5066517;28;20235;-51
2022/06/08 04:24:49;;;;;;;2.38;2.28;;;;;;;;;;5064436;28;20223;-51
2022/06/08 04:27:16;;;;;;;2.33;2.13;;;;;;;;;;5063370;28;20297;-50
2022/06/08 04:29:43;;;;;;;2.45;2.00;;;;;;;;;;5066187;28;20234;-51
2022/06/08 04:32:10;;;;;;;4.40;2.47;;;;;;;;;;5067191;28;20239;-51
2022/06/08 04:34:36;;;;;;;5.78;2.80;;;;;;;;;;5066340;28;20234;-50
2022/06/08 04:37:05;;;;;;;2.60;2.40;;;;;;;;;;5066737;28;20227;-51
2022/06/08 04:39:31;;;;;;;4.63;2.20;;;;;;;;;;5066132;28;20234;-52
2022/06/08 04:41:57;;;;;;;2.28;2.08;;;;;;;;;;5066511;28;20604;-50
2022/06/08 04:44:24;;;;;;;3.58;2.50;;;;;;;;;;5067095;28;20231;-51
2022/06/08 04:46:50;;;;;;;3.80;2.28;;;;;;;;;;5066397;28;20261;-52
2022/06/08 04:49:17;;;;;;;2.65;2.45;;;;;;;;;;5065676;28;20800;-54
2022/06/08 04:51:43;;;;;;;2.45;2.20;;;;;;;;;;5066315;28;20240;-52
2022/06/08 04:54:11;;;;;;;2.30;1.92;;;;;;;;;;5066774;28;20239;-51
2022/06/08 04:56:38;;;;;;;3.20;2.65;;;;;;;;;;5058030;28;20232;-50
2022/06/08 04:59:04;;;;;;;4.53;2.20;;;;;;;;;;5058075;28;20320;-52
2022/06/08 05:01:31;;;;;;;2.70;2.50;;;;;;;;;;5066250;28;20238;-50
2022/06/08 05:03:58;;;;;;;4.57;2.33;;;;;;;;;;5062110;28;20238;-51
2022/06/08 05:06:25;;;;;;;2.72;2.35;;;;;;;;;;5057673;28;20260;-51
2022/06/08 05:08:52;;;;;;;2.05;1.95;;;;;;;;;;5065241;28;20236;-51
2022/06/08 05:11:20;;;;;;;2.63;2.42;;;;;;;;;;5064416;28;20261;-50
2022/06/08 05:13:47;;;;;;;3.03;2.38;;;;;;;;;;5056318;28;20230;-50
2022/06/08 05:16:14;;;;;;;2.40;2.13;;;;;;;;;;5065141;28;20235;-51
2022/06/08 05:18:40;;;;;;;2.42;2.22;;;;;;;;;;5056011;28;20230;-51
2022/06/08 05:21:07;;;;;;;4.25;2.95;;;;;;;;;;5065184;28;20231;-51
2022/06/08 05:23:34;;;;;;;2.60;2.40;;;;;;;;;;5060862;28;20253;-51
2022/06/08 05:26:02;;;;;;;2.30;2.10;;;;;;;;;;5065264;28;20241;-51
2022/06/08 05:28:30;;;;;;;5.28;2.42;;;;;;;;;;5065138;28;20250;-51
2022/06/08 05:30:57;;;;;;;2.75;2.55;;;;;;;;;;5058131;28;20223;-51
2022/06/08 05:33:24;;;;;;;2.38;2.20;;;;;;;;;;5066231;28;20231;-61
2022/06/08 05:35:50;;;;;;;2.30;2.10;;;;;;;;;;5066486;28;20243;-52
2022/06/08 05:38:17;;;;;;;2.47;2.25;;;;;;;;;;5065036;28;20314;-50
2022/06/08 05:40:43;;;;;;;2.60;2.35;;;;;;;;;;5058477;28;20244;-52
2022/06/08 05:43:11;;;;;;;2.40;1.95;;;;;;;;;;5061871;28;20227;-52
2022/06/08 05:45:40;;;;;;;3.00;2.65;;;;;;;;;;5062286;28;20235;-50
2022/06/08 05:48:06;;;;;;;2.42;2.15;;;;;;;;;;5061944;28;20811;-51
2022/06/08 05:50:33;;;;;;;2.92;2.65;;;;;;;;;;5060034;28;20227;-50
2022/06/08 05:52:59;;;;;;;3.97;3.10;;;;;;;;;;5063204;28;20322;-50
2022/06/08 05:55:26;;;;;;;3.25;2.70;;;;;;;;;;5064729;28;20249;-50
2022/06/08 05:57:52;;;;;;;3.00;2.40;;;;;;;;;;5060539;28;20246;-52
2022/06/08 06:00:21;;;;;;;2.78;2.58;;;;;;;;;;5062018;28;20261;-50
2022/06/08 06:02:48;;;;;;;3.13;2.50;;;;;;;;;;5063082;28;20390;-51
2022/06/08 06:05:16;;;;;;;3.15;2.80;;;;;;;;;;5063612;28;20254;-50
2022/06/08 06:07:42;;;;;;;3.50;2.85;;;;;;;;;;5064784;28;20740;-51
2022/06/08 06:10:10;;;;;;;3.00;2.80;;;;;;;;;;5064702;28;20717;-52
2022/06/08 06:12:36;;;;;;;3.22;2.92;;;;;;;;;;5056342;28;20624;-51
2022/06/08 06:15:03;;;;;;;5.57;3.17;;;;;;;;;;5059035;28;20242;-51
2022/06/08 06:17:29;;;;;;;5.05;2.88;;;;;;;;;;5063114;28;20246;-51
2022/06/08 06:19:57;;;;;;;5.00;3.08;;;;;;;;;;5064299;28;20237;-51
2022/06/08 06:22:24;;;;;;;3.25;3.00;;;;;;;;;;5063824;28;20744;-51
2022/06/08 06:24:50;;;;;;;2.72;2.53;;;;;;;;;;5063556;28;20318;-50
2022/06/08 06:27:17;;;;;;;3.15;2.90;;;;;;;;;;5064076;28;20227;-51
2022/06/08 06:29:43;;;;;;;3.10;2.85;;;;;;;;;;5062419;28;20843;-54
2022/06/08 06:32:11;;;;;;;3.15;2.80;;;;;;;;;;5062587;28;20227;-51
2022/06/08 06:34:38;;;;;;;2.60;2.40;;;;;;;;;;5064503;28;20780;-51
2022/06/08 06:37:06;;;;;;;3.08;2.58;;;;;;;;;;5064453;28;20249;-52
2022/06/08 06:39:32;;;;;;;6.13;3.08;;;;;;;;;;5063763;28;20239;-50
2022/06/08 06:41:59;;;;;;;2.70;2.53;;;;;;;;;;5064671;28;20334;-51
2022/06/08 06:44:26;;;;;;;3.15;2.88;;;;;;;;;;5065191;28;20313;-51
2022/06/08 06:46:52;;;;;;;2.92;2.72;;;;;;;;;;5063627;28;20267;-51
2022/06/08 06:49:19;;;;;;;4.05;3.38;;;;;;;;;;5062976;28;20240;-52
2022/06/08 06:51:46;;;;;;;4.95;3.10;;;;;;;;;;5064582;28;20242;-51
2022/06/08 06:54:14;;;;;;;3.15;2.50;;;;;;;;;;5059987;28;20239;-50
2022/06/08 06:56:40;;;;;;;2.85;2.65;;;;;;;;;;5067427;28;20234;-51
2022/06/08 06:59:06;;;;;;;2.70;2.50;;;;;;;;;;5065528;28;20255;-51
2022/06/08 07:01:34;;;;;;;2.53;2.33;;;;;;;;;;5068073;28;20284;-50
2022/06/08 07:04:00;;;;;;;2.60;2.40;;;;;;;;;;5058225;28;20776;-51
2022/06/08 07:06:29;;;;;;;3.47;2.15;;;;;;;;;;5067188;28;20318;-51
2022/06/08 07:08:56;;;;;;;3.03;2.47;;;;;;;;;;5054058;28;20678;-51
2022/06/08 07:11:35;;;;;;;2.95;2.75;;;;;;;;;;5058215;28;20226;-50
2022/06/08 07:14:02;;;;;;;2.13;2.03;;;;;;;;;;5062190;28;20594;-51
2022/06/08 07:16:29;;;;;;;5.28;2.90;;;;;;;;;;5059670;28;20241;-52
2022/06/08 07:18:55;;;;;;;2.75;2.03;;;;;;;;;;5066273;28;20281;-51
2022/06/08 07:21:22;;;;;;;3.45;1.98;;;;;;;;;;5058575;28;20729;-50
2022/06/08 07:23:48;;;;;;;2.60;2.35;;;;;;;;;;5065533;28;20238;-51
2022/06/08 07:26:15;;;;;;;2.55;2.40;;;;;;;;;;5065996;28;20843;-51
2022/06/08 07:28:42;;;;;;;3.78;2.50;;;;;;;;;;5060918;28;20219;-51
2022/06/08 07:31:11;;;;;;;2.08;1.80;;;;;;;;;;5067767;28;20721;-51
2022/06/08 07:33:38;;;;;;;2.30;2.00;;;;;;;;;;5078143;28;20744;-51
2022/06/08 07:36:05;;;;;;;2.33;2.10;;;;;;;;;;5079974;28;20724;-51
2022/06/08 07:38:31;;;;;;;3.17;2.45;;;;;;;;;;5060272;28;20246;-52
2022/06/08 07:40:58;;;;;;;4.15;2.20;;;;;;;;;;5064495;28;20238;-51
2022/06/08 07:43:24;;;;;;;2.05;1.95;;;;;;;;;;5067337;28;20321;-50
2022/06/08 07:45:52;;;;;;;1.90;1.70;;;;;;;;;;5065296;28;20242;-50
2022/06/08 07:51:02;;;;;;;2.17;1.98;;;;;;;;;;5064601;28;20312;-51
2022/06/08 07:53:28;;;;;;;2.92;1.80;;;;;;;;;;5068162;28;20243;-54
2022/06/08 07:55:55;;;;;;;2.42;2.22;;;;;;;;;;5061375;28;20263;-51
2022/06/08 07:58:21;;;;;;;3.38;2.17;;;;;;;;;;5074894;28;21984;-50
2022/06/08 08:00:48;;;;;;;5.05;1.90;;;;;;;;;;5066077;28;20237;-52
2022/06/08 08:03:17;;;;;;;1.85;1.63;;;;;;;;;;5064270;28;20713;-51
2022/06/08 08:05:43;;;;;;;3.15;2.15;;;;;;;;;;5064506;28;20756;-51
2022/06/08 08:08:10;;;;;;;1.80;1.70;;;;;;;;;;5063487;28;20227;-52
2022/06/08 08:10:37;;;;;;;2.10;1.90;;;;;;;;;;5061366;28;20241;-52
2022/06/08 08:13:03;;;;;;;4.15;1.52;;;;;;;;;;5060167;28;20250;-51
2022/06/08 08:15:30;;;;;;;2.60;2.40;;;;;;;;;;5067278;28;20235;-52
2022/06/08 08:17:57;;;;;;;1.75;1.65;;;;;;;;;;5064107;28;20685;-51
2022/06/08 08:20:26;;;;;;;1.70;1.60;;;;;;;;;;5065407;28;20266;-50
2022/06/08 08:22:53;;;;;;;2.17;2.03;;;;;;;;;;5058300;28;20651;-51
2022/06/08 08:25:19;;;;;;;2.42;2.20;;;;;;;;;;5061864;28;20238;-50
2022/06/08 08:27:47;;;;;;;2.78;1.52;;;;;;;;;;5065471;28;20227;-51
2022/06/08 08:30:14;;;;;;;1.80;1.70;;;;;;;;;;5064608;28;20623;-50
2022/06/08 08:32:41;;;;;;;2.08;1.80;;;;;;;;;;5063972;28;20347;-52
2022/06/08 08:35:08;;;;;;;1.98;1.58;;;;;;;;;;5066837;28;20606;-51
2022/06/08 08:37:36;;;;;;;2.35;2.08;;;;;;;;;;5065445;28;20235;-52
2022/06/08 08:40:03;;;;;;;1.58;1.48;;;;;;;;;;5056377;28;20705;-50
2022/06/08 08:42:29;;;;;;;1.75;1.60;;;;;;;;;;5057375;28;20250;-52
2022/06/08 08:44:57;;;;;;;1.73;1.63;;;;;;;;;;5062426;28;20318;-51
2022/06/08 08:47:27;;;;;;;1.73;1.63;;;;;;;;;;5059670;28;20289;-53
2022/06/08 08:49:55;;;;;;;11.07;2.22;;;;;;;;;;5061834;28;20230;-54
2022/06/08 08:52:25;;;;;;;2.72;1.70;;;;;;;;;;5061798;28;20267;-53
2022/06/08 08:54:58;;;;;;;3.60;2.10;;;;;;;;;;5064843;28;20242;-53
2022/06/08 08:57:27;;;;;;;2.13;1.98;;;;;;;;;;5065527;28;20825;-54
2022/06/08 08:59:54;;;;;;;1.38;1.27;;;;;;;;;;5064628;28;20234;-54
2022/06/08 09:03:14;;;;;;;5.57;1.90;;;;;;;;;;5065688;28;20231;-54
2022/06/08 09:05:12;;;;;;;2.90;1.52;;;;;;;;;;5063531;28;20231;-54
2022/06/08 09:07:38;;;;;;;2.42;1.67;;;;;;;;;;5065915;28;20798;-54
2022/06/08 09:10:07;;;;;;;3.60;1.88;;;;;;;;;;5064004;28;20245;-54
2022/06/08 09:12:33;;;;;;;1.33;1.23;;;;;;;;;;5060308;28;20281;-53
2022/06/08 09:15:01;;;;;;;1.83;1.73;;;;;;;;;;5060541;28;20242;-54
2022/06/08 09:17:32;;;;;;;1.50;1.40;;;;;;;;;;5054642;28;20234;-53
2022/06/08 09:19:59;;;;;;;2.30;1.73;;;;;;;;;;5058951;28;20288;-55
2022/06/08 09:22:27;;;;;;;2.67;1.95;;;;;;;;;;5063803;28;20713;-55
2022/06/08 09:24:55;;;;;;;2.95;1.40;;;;;;;;;;5063408;28;20238;-56
2022/06/08 09:27:25;;;;;;;1.60;1.50;;;;;;;;;;5062088;28;20224;-55
2022/06/08 09:29:54;;;;;;;3.05;1.73;;;;;;;;;;5058592;28;20245;-54
2022/06/08 09:32:29;;;;;;;1.40;1.30;;;;;;;;;;5066105;28;20239;-54
2022/06/08 09:34:56;;;;;;;2.15;1.27;;;;;;;;;;5054188;28;20235;-53
2022/06/08 09:37:24;;;;;;;1.67;1.50;;;;;;;;;;5064972;28;20242;-56
2022/06/08 09:39:52;;;;;;;2.78;1.27;;;;;;;;;;5064568;28;21060;-54
2022/06/08 09:42:35;;;;;;;1.50;1.40;;;;;;;;;;5066187;28;20235;-54
2022/06/08 09:45:04;;;;;;;1.30;1.15;;;;;;;;;;5060633;28;20227;-53
2022/06/08 09:53:13;;;;;;;3.15;1.50;;;;;;;;;;5063556;28;20951;-54
2022/06/08 09:55:44;;;;;;;1.63;1.52;;;;;;;;;;5057780;28;20229;-54
2022/06/08 09:58:20;;;;;;;1.38;1.20;;;;;;;;;;5063873;28;20710;-55
2022/06/08 10:00:51;;;;;;;1.60;1.10;;;;;;;;;;5067454;28;20851;-54
2022/06/08 10:03:41;;;;;;;1.75;1.65;;;;;;;;;;5063143;28;20267;-55
2022/06/08 10:06:11;;;;;;;3.00;1.20;;;;;;;;;;5046431;28;20231;-55
2022/06/08 10:08:43;;;;;;;2.47;1.23;;;;;;;;;;5063883;28;20397;-54
2022/06/08 10:11:34;;;;;;;1.30;1.20;;;;;;;;;;5064109;28;20322;-54
2022/06/08 10:14:01;;;;;;;2.35;1.33;;;;;;;;;;5063223;28;20645;-54
2022/06/08 10:16:31;;;;;;;2.75;1.05;;;;;;;;;;5065386;28;20239;-55
2022/06/08 10:19:00;;;;;;;0.98;0.98;;;;;;;;;;5064179;28;20235;-55
2022/06/08 10:21:29;;;;;;;2.50;1.55;;;;;;;;;;5063831;28;20284;-54
2022/06/08 10:23:58;;;;;;;1.35;1.25;;;;;;;;;;5061569;28;20318;-54
2022/06/08 10:26:28;;;;;;;2.28;1.73;;;;;;;;;;5063230;28;20235;-54
2022/06/08 10:28:59;;;;;;;1.20;1.20;;;;;;;;;;5064857;28;20251;-54
2022/06/08 10:31:31;;;;;;;2.67;1.45;;;;;;;;;;5066608;28;20241;-55
2022/06/08 10:34:03;;;;;;;1.25;1.15;;;;;;;;;;5066435;28;20249;-55
2022/06/08 10:36:31;;;;;;;2.70;1.17;;;;;;;;;;5068401;28;20223;-55
2022/06/08 10:39:00;;;;;;;3.47;1.40;;;;;;;;;;5066598;28;20235;-55
2022/06/08 10:44:25;;;;;;;3.75;1.38;;;;;;;;;;5067346;28;20590;-55
2022/06/08 10:46:52;;;;;;;1.00;1.00;;;;;;;;;;5064790;28;20241;-55
2022/06/08 10:49:20;;;;;;;1.73;1.50;;;;;;;;;;5068086;28;20310;-55
2022/06/08 10:52:07;;;;;;;1.70;1.60;;;;;;;;;;5066106;28;20239;-54
2022/06/08 10:54:53;;;;;;;1.25;1.15;;;;;;;;;;5061520;28;20231;-54
2022/06/08 10:57:42;;;;;;;2.85;1.10;;;;;;;;;;5060518;28;20572;-54
2022/06/08 11:00:24;;;;;;;1.20;1.10;;;;;;;;;;5065393;28;20223;-55
2022/06/08 11:02:52;;;;;;;1.95;1.27;;;;;;;;;;5066414;28;20629;-55
2022/06/08 11:05:20;;;;;;;1.20;1.15;;;;;;;;;;5064773;28;20235;-54
2022/06/08 11:08:05;;;;;;;1.30;1.20;;;;;;;;;;5065757;28;20253;-57
2022/06/08 11:10:48;;;;;;;0.93;0.90;;;;;;;;;;5044583;28;20652;-58
2022/06/08 11:13:23;;;;;;;1.10;1.10;;;;;;;;;;5062950;28;20701;-54
2022/06/08 11:15:51;;;;;;;1.00;1.00;;;;;;;;;;5067729;28;20233;-54
2022/06/08 11:18:24;;;;;;;2.13;1.55;;;;;;;;;;5068809;28;20319;-55
2022/06/08 11:20:57;;;;;;;2.25;0.90;;;;;;;;;;5064478;28;20277;-62
2022/06/08 11:23:25;;;;;;;0.95;0.95;;;;;;;;;;5067389;28;20650;-60
2022/06/08 11:25:53;;;;;;;3.17;1.63;;;;;;;;;;5063069;28;20245;-55
2022/06/08 11:28:44;;;;;;;2.20;1.00;;;;;;;;;;5063104;28;20246;-54
2022/06/08 11:31:12;;;;;;;0.70;0.70;;;;;;;;;;5061412;28;22081;-54
2022/06/08 11:33:56;;;;;;;1.05;0.95;;;;;;;;;;5057244;28;20838;-55
2022/06/08 11:36:37;;;;;;;1.55;0.80;;;;;;;;;;5066026;28;22436;-55
2022/06/08 11:39:05;;;;;;;1.08;1.08;;;;;;;;;;5057562;28;20231;-54
2022/06/08 11:41:37;;;;;;;1.00;1.00;;;;;;;;;;5069243;28;20239;-54
2022/06/08 11:44:11;;;;;;;2.20;0.90;;;;;;;;;;5060985;28;20233;-54
2022/06/08 11:46:38;;;;;;;1.02;0.93;;;;;;;;;;5062483;28;20242;-55
2022/06/08 11:49:08;;;;;;;1.40;0.90;;;;;;;;;;5054383;28;20232;-54
2022/06/08 11:51:37;;;;;;;1.60;1.00;;;;;;;;;;5061440;28;20246;-55
2022/06/08 11:54:17;;;;;;;0.95;0.95;;;;;;;;;;5064845;28;20310;-55
2022/06/08 11:56:49;;;;;;;4.22;0.95;;;;;;;;;;5065857;28;20786;-55
2022/06/08 11:59:18;;;;;;;1.23;0.90;;;;;;;;;;5064086;28;20717;-55
2022/06/08 12:01:51;;;;;;;1.75;0.80;;;;;;;;;;5060861;28;20232;-54
2022/06/08 12:04:19;;;;;;;1.02;0.80;;;;;;;;;;5064133;28;20288;-55
2022/06/08 12:06:48;;;;;;;0.93;0.90;;;;;;;;;;5067327;28;20231;-54
2022/06/08 12:09:19;;;;;;;1.65;0.68;;;;;;;;;;5066229;28;20237;-55
2022/06/08 12:11:46;;;;;;;3.72;1.27;;;;;;;;;;5061212;28;20941;-55
2022/06/08 12:14:17;;;;;;;2.05;1.08;;;;;;;;;;5063874;28;20239;-54
2022/06/08 12:16:52;;;;;;;3.05;0.75;;;;;;;;;;5065410;28;20234;-54
2022/06/08 12:19:20;;;;;;;0.80;0.80;;;;;;;;;;5062325;28;20234;-54
2022/06/08 12:22:06;;;;;;;0.70;0.70;;;;;;;;;;5061599;28;20253;-54
2022/06/08 12:24:33;;;;;;;0.98;0.80;;;;;;;;;;5066695;28;20223;-55
2022/06/08 12:27:02;;;;;;;0.80;0.80;;;;;;;;;;5063927;28;20229;-55
2022/06/08 12:29:33;;;;;;;0.70;0.70;;;;;;;;;;5065510;28;20238;-55
2022/06/08 12:32:01;;;;;;;1.33;0.60;;;;;;;;;;5063652;28;20314;-55
2022/06/08 12:34:33;;;;;;;1.45;0.85;;;;;;;;;;5064286;28;20328;-54
2022/06/08 12:37:21;;;;;;;2.42;0.88;;;;;;;;;;5063793;28;20314;-54
2022/06/08 12:39:47;;;;;;;0.90;0.90;;;;;;;;;;5061306;28;20247;-54
2022/06/08 12:42:24;;;;;;;0.70;0.70;;;;;;;;;;5059813;28;20248;-54
2022/06/08 12:44:52;;;;;;;1.10;0.93;;;;;;;;;;5062847;28;20235;-55
2022/06/08 12:47:19;;;;;;;0.63;0.63;;;;;;;;;;5062788;28;20241;-54
2022/06/08 12:49:48;;;;;;;0.73;0.73;;;;;;;;;;5066301;28;20231;-55
2022/06/08 12:52:21;;;;;;;0.70;0.70;;;;;;;;;;5062244;28;20239;-55
2022/06/08 12:54:48;;;;;;;0.75;0.70;;;;;;;;;;5061324;28;20233;-55
2022/06/08 12:57:16;;;;;;;1.08;0.73;;;;;;;;;;5065099;28;20314;-55
2022/06/08 12:59:44;;;;;;;0.60;0.60;;;;;;;;;;5061914;28;20235;-55
2022/06/08 13:02:12;;;;;;;0.80;0.80;;;;;;;;;;5059602;28;20717;-55
2022/06/08 13:04:38;;;;;;;1.75;0.55;;;;;;;;;;5061990;28;20687;-55
2022/06/08 13:07:04;;;;;;;1.55;0.63;;;;;;;;;;5063675;28;20232;-55
2022/06/08 13:09:32;;;;;;;0.75;0.70;;;;;;;;;;5063119;28;20239;-55
2022/06/08 13:12:00;;;;;;;3.25;0.80;;;;;;;;;;5059415;28;20227;-54
2022/06/08 13:14:26;;;;;;;0.60;0.60;;;;;;;;;;5065031;28;20231;-55
2022/06/08 13:16:53;;;;;;;1.17;0.88;;;;;;;;;;5056673;28;20254;-54
2022/06/08 13:19:20;;;;;;;1.17;1.00;;;;;;;;;;5060558;28;20235;-54
2022/06/08 13:21:47;;;;;;;2.38;1.10;;;;;;;;;;5062346;28;20308;-54
2022/06/08 13:24:14;;;;;;;0.98;0.82;;;;;;;;;;5062488;28;20253;-55
2022/06/08 13:26:42;;;;;;;0.70;0.70;;;;;;;;;;5062898;28;20230;-54
2022/06/08 13:29:09;;;;;;;1.30;0.60;;;;;;;;;;5053632;28;20242;-55
2022/06/08 13:31:35;;;;;;;0.90;0.80;;;;;;;;;;5060796;28;20242;-54
2022/06/08 13:34:02;;;;;;;0.90;0.80;;;;;;;;;;5062455;28;20247;-54
2022/06/08 13:36:40;;;;;;;0.70;0.70;;;;;;;;;;5062108;28;20235;-54
2022/06/08 13:39:22;;;;;;;1.85;0.50;;;;;;;;;;5062651;28;20674;-54
2022/06/08 13:41:50;;;;;;;0.55;0.55;;;;;;;;;;5061232;28;20748;-54
2022/06/08 13:44:19;;;;;;;0.57;0.57;;;;;;;;;;5060436;28;20310;-54
2022/06/08 13:46:46;;;;;;;1.23;0.55;;;;;;;;;;5060210;28;20239;-54
2022/06/08 13:49:14;;;;;;;1.33;0.63;;;;;;;;;;5061565;28;20230;-54
2022/06/08 13:51:41;;;;;;;0.98;0.60;;;;;;;;;;5062063;28;20239;-54
2022/06/08 13:54:08;;;;;;;0.43;0.43;;;;;;;;;;5061986;28;20231;-53
2022/06/08 13:56:34;;;;;;;0.43;0.43;;;;;;;;;;5059037;28;20231;-54
2022/06/08 13:59:02;;;;;;;2.67;0.70;;;;;;;;;;5060551;28;20231;-54
2022/06/08 14:01:31;;;;;;;0.70;0.70;;;;;;;;;;5062576;28;20231;-54
2022/06/08 14:03:58;;;;;;;0.55;0.55;;;;;;;;;;5062177;28;20255;-54
2022/06/08 14:14:45;;;;;;;0.85;0.50;;;;;;;;;;5059581;28;20280;-55
2022/06/08 14:17:12;;;;;;;1.05;0.80;;;;;;;;;;5059426;28;20664;-54
2022/06/08 14:19:41;;;;;;;0.93;0.70;;;;;;;;;;5060164;28;20245;-54
2022/06/08 14:22:08;;;;;;;1.30;0.50;;;;;;;;;;5064079;28;20246;-54
2022/06/08 14:24:36;;;;;;;1.38;0.63;;;;;;;;;;5062284;28;20235;-55
2022/06/08 14:27:03;;;;;;;0.50;0.50;;;;;;;;;;5063445;28;20231;-54
2022/06/08 14:29:30;;;;;;;0.70;0.65;;;;;;;;;;5060836;28;20324;-54
2022/06/08 14:31:59;;;;;;;0.63;0.63;;;;;;;;;;5059455;28;20227;-54
2022/06/08 14:34:26;;;;;;;0.68;0.68;;;;;;;;;;5062564;28;20227;-53
2022/06/08 14:36:54;;;;;;;0.63;0.63;;;;;;;;;;5060864;28;20230;-55
2022/06/08 14:39:22;;;;;;;0.50;0.50;;;;;;;;;;5062495;28;20246;-55
2022/06/08 14:41:49;;;;;;;0.47;0.47;;;;;;;;;;5057119;28;20242;-55
2022/06/08 14:44:19;;;;;;;1.10;0.80;;;;;;;;;;5058200;28;20841;-55
2022/06/08 14:46:46;;;;;;;1.30;0.70;;;;;;;;;;5058369;28;20238;-55
2022/06/08 14:49:15;;;;;;;0.73;0.52;;;;;;;;;;5060181;28;20262;-54
2022/06/08 14:51:42;;;;;;;0.40;0.40;;;;;;;;;;5063052;28;20258;-55
2022/06/08 14:54:11;;;;;;;0.80;0.50;;;;;;;;;;5065005;28;20492;-55
2022/06/08 14:56:37;;;;;;;0.60;0.60;;;;;;;;;;5063466;28;20239;-55
2022/06/08 14:59:12;;;;;;;1.88;0.68;;;;;;;;;;5061362;28;20235;-55
2022/06/08 15:01:39;;;;;;;1.58;0.52;;;;;;;;;;5059433;28;20237;-56
2022/06/08 15:04:05;;;;;;;0.50;0.50;;;;;;;;;;5061938;28;20258;-55
2022/06/08 15:06:33;;;;;;;0.60;0.60;;;;;;;;;;5068656;28;20235;-56
2022/06/08 15:08:59;;;;;;;0.40;0.40;;;;;;;;;;5060833;28;20227;-56
2022/06/08 15:14:16;;;;;;;2.58;0.63;;;;;;;;;;5052529;28;20706;-56
2022/06/08 15:16:42;;;;;;;0.80;0.80;;;;;;;;;;5059946;28;20234;-56
2022/06/08 15:19:11;;;;;;;0.80;0.80;;;;;;;;;;5066827;28;20266;-56